Time;durP1;ratioP1;P1;durP2;ratioP2;P2;SDS_P1;SDS_P2;PMS_P1;PMS_P2;Temp;Humidity;BMP_temperature;BMP_pressure;BME280_temperature;BME280_humidity;BME280_pressure;Samples;Min_cycle;Max_cycle;Signal;HPM_P1;HPM_P2
2023/08/15 00:02:10;;;;;;;34.00;13.73;;;24.70;99.90;;;;;;5145128;28;20054;-76
2023/08/15 00:04:41;;;;;;;28.10;12.95;;;24.70;99.90;;;;;;5143973;28;20030;-76
2023/08/15 00:07:12;;;;;;;30.98;13.30;;;24.70;99.90;;;;;;5144200;28;20054;-75
2023/08/15 00:09:42;;;;;;;29.35;13.63;;;24.70;99.90;;;;;;5142842;28;20089;-75
2023/08/15 00:12:13;;;;;;;26.98;12.50;;;24.80;99.90;;;;;;5143929;28;20544;-77
2023/08/15 00:14:44;;;;;;;29.17;13.40;;;24.80;99.90;;;;;;5144208;28;20102;-75
2023/08/15 00:17:15;;;;;;;36.00;13.45;;;24.80;99.90;;;;;;5126590;28;20073;-76
2023/08/15 00:19:46;;;;;;;25.98;13.55;;;24.70;99.90;;;;;;5145306;28;20387;-76
2023/08/15 00:22:17;;;;;;;32.33;13.38;;;24.70;99.90;;;;;;5145293;28;20029;-77
2023/08/15 00:24:48;;;;;;;30.52;14.70;;;24.70;99.90;;;;;;5145111;28;20117;-75
2023/08/15 00:27:19;;;;;;;27.33;13.57;;;24.80;99.90;;;;;;5144582;28;20146;-75
2023/08/15 00:29:50;;;;;;;31.85;13.70;;;24.80;99.90;;;;;;5127767;28;20070;-75
2023/08/15 00:32:20;;;;;;;29.95;14.93;;;24.70;99.90;;;;;;5144694;28;20034;-77
2023/08/15 00:34:51;;;;;;;29.85;13.80;;;24.80;99.90;;;;;;5145121;28;20026;-77
2023/08/15 00:37:22;;;;;;;32.42;13.88;;;24.80;99.90;;;;;;5144744;28;20070;-75
2023/08/15 00:39:53;;;;;;;31.80;14.02;;;24.80;99.90;;;;;;5144989;28;20027;-75
2023/08/15 00:42:24;;;;;;;30.05;13.63;;;24.80;99.90;;;;;;5144805;28;20025;-75
2023/08/15 00:44:55;;;;;;;32.15;13.68;;;24.80;99.90;;;;;;5161236;28;20089;-75
2023/08/15 00:47:26;;;;;;;27.55;13.32;;;24.80;99.90;;;;;;5164822;28;20022;-76
2023/08/15 00:49:57;;;;;;;31.27;12.90;;;24.80;99.90;;;;;;5165049;28;20860;-75
2023/08/15 00:52:28;;;;;;;33.90;13.60;;;24.80;99.90;;;;;;5147181;28;20039;-76
2023/08/15 00:55:00;;;;;;;27.33;13.52;;;24.80;99.90;;;;;;5164658;28;20561;-75
2023/08/15 00:57:31;;;;;;;36.08;15.68;;;24.80;99.90;;;;;;5146370;28;20061;-75
2023/08/15 01:00:02;;;;;;;29.25;14.07;;;24.80;99.90;;;;;;5166767;28;20074;-76
2023/08/15 01:02:33;;;;;;;31.65;14.38;;;24.80;99.90;;;;;;5167405;28;20046;-76
2023/08/15 01:05:05;;;;;;;34.85;14.40;;;24.70;99.90;;;;;;5167497;28;20780;-76
2023/08/15 01:07:36;;;;;;;34.55;15.57;;;24.80;99.90;;;;;;5167022;28;20065;-76
2023/08/15 01:10:07;;;;;;;31.40;14.70;;;24.80;99.90;;;;;;5167456;28;20525;-75
2023/08/15 01:12:44;;;;;;;34.45;15.45;;;24.80;99.90;;;;;;5149958;28;20374;-77
2023/08/15 01:15:25;;;;;;;33.72;15.73;;;24.80;99.90;;;;;;5167986;28;20026;-77
2023/08/15 01:18:08;;;;;;;39.70;15.90;;;24.80;99.90;;;;;;5168337;28;20022;-75
2023/08/15 01:20:40;;;;;;;32.42;14.02;;;24.80;99.90;;;;;;5168321;28;20034;-75
2023/08/15 01:23:14;;;;;;;31.23;14.75;;;24.80;99.90;;;;;;5150707;28;20117;-75
2023/08/15 01:25:45;;;;;;;32.05;15.35;;;24.80;99.90;;;;;;5168156;28;20101;-75
2023/08/15 01:28:16;;;;;;;32.97;15.80;;;24.80;99.90;;;;;;5167921;28;20134;-75
2023/08/15 01:30:52;;;;;;;35.65;15.07;;;24.80;99.90;;;;;;5168155;28;20049;-75
2023/08/15 01:33:30;;;;;;;37.22;16.33;;;24.80;99.90;;;;;;5150680;28;20030;-76
2023/08/15 01:36:10;;;;;;;36.65;16.15;;;24.80;99.90;;;;;;5168307;28;20030;-76
2023/08/15 01:38:55;;;;;;;34.67;16.35;;;24.80;99.90;;;;;;5150545;28;20125;-75
2023/08/15 01:41:27;;;;;;;37.72;16.42;;;24.80;99.90;;;;;;5150590;28;20110;-75
2023/08/15 01:44:00;;;;;;;37.70;17.05;;;24.90;99.90;;;;;;5168170;28;20385;-76
2023/08/15 01:46:31;;;;;;;34.42;17.13;;;24.80;99.90;;;;;;5167980;28;20109;-76
2023/08/15 01:49:02;;;;;;;36.50;16.80;;;24.90;99.90;;;;;;5150546;28;20037;-75
2023/08/15 01:51:33;;;;;;;32.40;17.50;;;24.80;99.90;;;;;;5150258;28;20483;-78
2023/08/15 01:54:04;;;;;;;38.97;17.38;;;24.80;99.90;;;;;;5167632;28;20113;-75
2023/08/15 01:56:35;;;;;;;42.60;18.13;;;24.80;99.90;;;;;;5166682;28;20041;-75
2023/08/15 01:59:05;;;;;;;43.22;18.75;;;24.80;99.90;;;;;;5148702;28;20038;-76
2023/08/15 02:01:36;;;;;;;35.75;18.48;;;24.90;99.90;;;;;;5148686;28;20033;-76
2023/08/15 02:04:07;;;;;;;33.63;17.95;;;24.90;99.90;;;;;;5166675;28;20018;-75
2023/08/15 02:06:38;;;;;;;38.50;19.83;;;24.90;99.90;;;;;;5166288;28;20058;-77
2023/08/15 02:09:09;;;;;;;43.50;19.58;;;24.90;99.90;;;;;;5148898;28;20027;-76
2023/08/15 02:11:40;;;;;;;40.55;20.98;;;24.90;99.90;;;;;;5165913;28;20026;-75
2023/08/15 02:14:11;;;;;;;44.50;20.95;;;25.00;99.90;;;;;;5167351;28;20374;-78
2023/08/15 02:16:42;;;;;;;42.30;20.92;;;24.90;99.90;;;;;;5167558;28;20419;-75
2023/08/15 02:19:13;;;;;;;39.05;20.27;;;24.90;99.90;;;;;;5167290;28;20042;-76
2023/08/15 02:21:44;;;;;;;38.00;20.17;;;24.90;99.90;;;;;;5166937;28;20120;-77
2023/08/15 02:24:14;;;;;;;38.33;20.30;;;24.90;99.90;;;;;;5149637;28;20037;-78
2023/08/15 02:27:11;;;;;;;38.55;19.60;;;24.90;99.90;;;;;;5167136;28;20466;-75
2023/08/15 02:29:45;;;;;;;40.13;20.30;;;24.90;99.90;;;;;;5149537;28;20137;-77
2023/08/15 02:32:33;;;;;;;36.20;18.30;;;25.00;99.90;;;;;;5149502;28;20070;-78
2023/08/15 02:35:05;;;;;;;39.55;18.58;;;24.90;99.90;;;;;;5167094;28;20030;-76
2023/08/15 02:37:36;;;;;;;39.28;18.88;;;25.00;99.90;;;;;;5166895;28;20093;-75
2023/08/15 02:40:08;;;;;;;45.70;18.55;;;25.00;99.90;;;;;;5166796;28;20362;-75
2023/08/15 02:42:39;;;;;;;38.70;18.05;;;25.00;99.90;;;;;;5166909;28;20026;-75
2023/08/15 02:45:10;;;;;;;37.83;18.33;;;24.90;99.90;;;;;;5166885;28;20104;-76
2023/08/15 02:47:41;;;;;;;39.42;18.92;;;24.90;99.90;;;;;;5149618;28;20496;-76
2023/08/15 02:50:12;;;;;;;33.95;18.52;;;24.90;99.90;;;;;;5149077;28;20113;-75
2023/08/15 02:52:43;;;;;;;40.15;18.10;;;25.00;99.90;;;;;;5165614;28;20027;-78
2023/08/15 02:55:14;;;;;;;38.58;18.25;;;25.00;99.90;;;;;;5165308;28;20037;-76
2023/08/15 02:57:45;;;;;;;34.33;17.77;;;24.90;99.90;;;;;;5164999;28;20046;-76
2023/08/15 03:00:16;;;;;;;31.73;18.45;;;25.00;99.90;;;;;;5165031;28;20088;-77
2023/08/15 03:02:47;;;;;;;30.17;18.65;;;25.00;99.90;;;;;;5165295;28;20026;-75
2023/08/15 03:05:17;;;;;;;32.72;17.35;;;25.00;99.90;;;;;;5165312;28;20088;-76
2023/08/15 03:07:48;;;;;;;39.00;19.15;;;25.00;99.90;;;;;;5165740;28;20037;-76
2023/08/15 03:10:19;;;;;;;38.65;18.95;;;25.00;99.90;;;;;;5166331;28;20085;-76
2023/08/15 03:12:50;;;;;;;32.85;18.70;;;25.00;99.90;;;;;;5148859;28;20126;-76
2023/08/15 03:15:21;;;;;;;36.22;19.15;;;25.00;99.90;;;;;;5166177;28;20080;-76
2023/08/15 03:17:52;;;;;;;32.53;18.40;;;25.00;99.90;;;;;;5148406;28;20390;-75
2023/08/15 03:20:23;;;;;;;37.80;18.05;;;25.00;99.90;;;;;;5147827;28;20364;-75
2023/08/15 03:22:53;;;;;;;37.20;18.15;;;25.00;99.90;;;;;;5150975;28;20035;-78
2023/08/15 03:25:24;;;;;;;37.97;18.42;;;25.00;99.90;;;;;;5146158;28;20081;-75
2023/08/15 03:27:55;;;;;;;44.38;18.50;;;25.00;99.90;;;;;;5145650;28;20053;-75
2023/08/15 03:30:26;;;;;;;46.70;17.38;;;25.00;99.90;;;;;;5128711;28;20038;-79
2023/08/15 03:32:57;;;;;;;38.30;18.13;;;25.00;99.90;;;;;;5145935;28;20037;-76
2023/08/15 03:35:28;;;;;;;41.72;17.10;;;24.90;99.90;;;;;;5128501;28;20550;-76
2023/08/15 03:37:59;;;;;;;42.00;18.90;;;25.00;99.90;;;;;;5145577;28;20056;-77
2023/08/15 03:40:30;;;;;;;39.50;17.52;;;25.00;99.90;;;;;;5128605;28;20089;-77
2023/08/15 03:43:00;;;;;;;37.47;18.40;;;25.00;99.90;;;;;;5128364;28;20023;-77
2023/08/15 03:45:31;;;;;;;36.30;17.50;;;25.00;99.90;;;;;;5145124;28;20031;-76
2023/08/15 03:48:03;;;;;;;39.97;17.50;;;25.00;99.90;;;;;;5145384;28;20065;-76
2023/08/15 03:50:38;;;;;;;41.22;17.55;;;25.00;99.90;;;;;;5145401;28;20077;-76
2023/08/15 03:53:09;;;;;;;33.10;16.85;;;25.00;99.90;;;;;;5145439;28;20019;-76
2023/08/15 03:55:40;;;;;;;34.85;16.17;;;25.00;99.90;;;;;;5145212;28;20541;-76
2023/08/15 03:58:11;;;;;;;38.03;16.60;;;25.00;99.90;;;;;;5145255;28;20026;-77
2023/08/15 04:00:43;;;;;;;42.22;17.70;;;24.90;99.90;;;;;;5145389;28;20047;-76
2023/08/15 04:03:15;;;;;;;36.60;15.95;;;25.00;99.90;;;;;;5145542;28;20015;-76
2023/08/15 04:05:46;;;;;;;35.75;16.52;;;25.00;99.90;;;;;;5145054;28;20045;-76
2023/08/15 04:08:17;;;;;;;41.28;18.08;;;25.00;99.90;;;;;;5145384;28;20038;-76
2023/08/15 04:10:48;;;;;;;38.22;17.08;;;24.90;99.90;;;;;;5145418;28;20023;-79
2023/08/15 04:13:19;;;;;;;39.13;15.90;;;25.00;99.90;;;;;;5128181;28;20033;-76
2023/08/15 04:15:50;;;;;;;38.47;15.88;;;24.90;99.90;;;;;;5145227;28;20031;-76
2023/08/15 04:18:21;;;;;;;36.15;16.40;;;25.00;99.90;;;;;;5145273;28;20113;-77
2023/08/15 04:20:52;;;;;;;37.95;16.35;;;25.00;99.90;;;;;;5145293;28;20029;-76
2023/08/15 04:23:23;;;;;;;38.45;17.95;;;24.90;99.90;;;;;;5621127;23;20029;-78
2023/08/15 04:25:54;;;;;;;39.47;16.90;;;24.90;99.90;;;;;;5143756;28;20035;-77
2023/08/15 04:28:25;;;;;;;37.78;16.15;;;25.00;99.90;;;;;;5143884;28;20404;-76
2023/08/15 04:30:56;;;;;;;42.75;16.83;;;25.00;99.90;;;;;;5145312;28;20382;-80
2023/08/15 04:33:27;;;;;;;40.97;18.48;;;25.00;99.90;;;;;;5144179;28;20034;-76
2023/08/15 04:35:58;;;;;;;39.05;17.85;;;25.00;99.90;;;;;;5148107;28;20077;-76
2023/08/15 04:38:28;;;;;;;37.80;18.17;;;25.00;99.90;;;;;;5148697;28;20035;-77
2023/08/15 04:40:59;;;;;;;39.75;17.70;;;24.90;99.90;;;;;;5149143;28;20114;-76
2023/08/15 04:43:30;;;;;;;45.20;18.17;;;25.00;99.90;;;;;;5149054;28;20089;-76
2023/08/15 04:46:01;;;;;;;37.67;17.73;;;25.00;99.90;;;;;;5148146;28;20031;-75
2023/08/15 04:48:32;;;;;;;41.75;17.73;;;25.00;99.90;;;;;;5148998;28;20035;-77
2023/08/15 04:51:03;;;;;;;44.50;18.75;;;25.00;99.90;;;;;;5147701;28;20121;-76
2023/08/15 04:53:34;;;;;;;38.58;17.00;;;25.00;99.90;;;;;;5153392;28;20045;-77
2023/08/15 04:56:06;;;;;;;45.90;17.75;;;25.00;99.90;;;;;;5169291;28;20022;-77
2023/08/15 04:58:36;;;;;;;38.25;17.02;;;25.00;99.90;;;;;;5169107;28;20038;-78
2023/08/15 05:01:07;;;;;;;42.47;16.88;;;25.00;99.90;;;;;;5169089;28;20022;-77
2023/08/15 05:03:38;;;;;;;37.00;18.20;;;25.00;99.90;;;;;;5169204;28;20445;-77
2023/08/15 05:06:09;;;;;;;45.35;19.08;;;25.00;99.90;;;;;;5167821;28;20026;-75
2023/08/15 05:08:40;;;;;;;37.90;17.45;;;25.00;99.90;;;;;;5169206;28;20034;-74
2023/08/15 05:11:11;;;;;;;39.97;17.73;;;25.00;99.90;;;;;;5167891;28;20032;-76
2023/08/15 05:13:42;;;;;;;44.28;18.55;;;25.00;99.90;;;;;;5168850;28;20118;-75
2023/08/15 05:16:12;;;;;;;38.05;18.60;;;25.00;99.90;;;;;;5168937;28;20027;-80
2023/08/15 05:18:43;;;;;;;43.00;17.77;;;25.00;99.90;;;;;;5168780;28;20089;-75
2023/08/15 05:21:14;;;;;;;38.45;17.30;;;25.00;99.90;;;;;;5168649;28;20094;-76
2023/08/15 05:23:47;;;;;;;45.22;19.08;;;25.00;99.90;;;;;;5167198;28;20039;-82
2023/08/15 05:26:18;;;;;;;46.75;17.95;;;25.00;99.90;;;;;;5167340;28;20100;-82
2023/08/15 05:28:48;;;;;;;37.53;17.70;;;25.00;99.90;;;;;;5167131;28;20027;-75
2023/08/15 05:31:19;;;;;;;44.45;18.05;;;25.00;99.90;;;;;;5168669;28;20022;-80
2023/08/15 05:33:50;;;;;;;40.25;17.25;;;25.10;99.90;;;;;;5167083;28;20026;-82
2023/08/15 05:36:21;;;;;;;40.75;17.83;;;25.10;99.90;;;;;;5167436;28;20026;-78
2023/08/15 05:38:52;;;;;;;46.63;17.88;;;25.10;99.90;;;;;;5168310;28;20049;-77
2023/08/15 05:41:23;;;;;;;35.85;17.25;;;25.20;99.90;;;;;;5166960;28;20022;-76
2023/08/15 05:43:54;;;;;;;39.55;18.02;;;25.10;99.90;;;;;;5168192;28;20031;-75
2023/08/15 05:46:24;;;;;;;38.92;16.35;;;25.10;99.90;;;;;;5167778;28;20030;-82
2023/08/15 05:48:55;;;;;;;42.35;16.20;;;25.10;99.90;;;;;;5167539;28;20105;-76
2023/08/15 05:51:26;;;;;;;40.50;16.25;;;25.10;99.90;;;;;;5167121;28;20026;-76
2023/08/15 05:53:57;;;;;;;42.20;15.98;;;25.30;99.90;;;;;;5166153;28;20034;-75
2023/08/15 05:56:28;;;;;;;41.05;16.30;;;25.20;99.90;;;;;;5168517;28;20032;-76
2023/08/15 05:58:59;;;;;;;40.53;16.25;;;25.10;99.90;;;;;;5168266;28;20045;-76
2023/08/15 06:01:29;;;;;;;40.13;15.52;;;25.10;99.90;;;;;;5167601;28;20088;-80
2023/08/15 06:04:01;;;;;;;37.20;15.98;;;25.20;99.90;;;;;;5167253;28;20026;-76
2023/08/15 06:06:31;;;;;;;43.25;16.30;;;25.20;99.90;;;;;;5167746;28;20022;-78
2023/08/15 06:09:03;;;;;;;44.83;16.17;;;25.10;99.90;;;;;;5167934;28;20034;-74
2023/08/15 06:11:34;;;;;;;33.47;16.25;;;25.10;99.90;;;;;;5167792;28;20506;-77
2023/08/15 06:14:05;;;;;;;39.10;17.08;;;25.10;99.90;;;;;;5166528;28;20117;-76
2023/08/15 06:16:36;;;;;;;39.47;15.63;;;25.20;99.90;;;;;;5166280;28;20438;-76
2023/08/15 06:19:07;;;;;;;38.60;16.20;;;25.10;99.90;;;;;;5167353;28;20034;-78
2023/08/15 06:21:41;;;;;;;39.38;15.70;;;25.20;99.90;;;;;;5167346;28;20027;-84
2023/08/15 06:24:12;;;;;;;40.83;16.73;;;25.10;99.90;;;;;;5167020;28;20046;-78
2023/08/15 06:26:43;;;;;;;36.13;16.60;;;25.20;99.90;;;;;;5166102;28;20176;-81
2023/08/15 06:29:14;;;;;;;43.95;16.73;;;25.20;99.90;;;;;;5165929;28;20113;-77
2023/08/15 06:31:45;;;;;;;42.50;16.00;;;25.10;99.90;;;;;;5167367;28;20026;-77
2023/08/15 06:34:16;;;;;;;40.65;15.93;;;25.10;99.90;;;;;;5165582;28;20502;-76
2023/08/15 06:36:47;;;;;;;41.17;16.25;;;25.20;99.90;;;;;;5165870;28;20069;-76
2023/08/15 06:39:17;;;;;;;39.38;15.57;;;25.10;99.90;;;;;;5167054;28;20188;-76
2023/08/15 06:41:48;;;;;;;42.05;16.10;;;25.10;99.90;;;;;;5166254;28;20535;-75
2023/08/15 06:44:21;;;;;;;36.53;15.20;;;25.20;99.90;;;;;;5167033;28;20069;-75
2023/08/15 06:46:51;;;;;;;44.33;16.45;;;25.20;99.90;;;;;;5165854;28;20449;-78
2023/08/15 06:49:22;;;;;;;34.55;16.25;;;25.20;99.90;;;;;;5167349;28;20030;-76
2023/08/15 06:51:53;;;;;;;39.22;17.23;;;25.20;99.90;;;;;;5167191;28;20026;-76
2023/08/15 06:54:24;;;;;;;37.13;17.02;;;25.20;99.90;;;;;;5165262;28;20383;-76
2023/08/15 06:56:55;;;;;;;40.15;16.52;;;25.40;99.90;;;;;;5165988;28;20398;-74
2023/08/15 06:59:26;;;;;;;38.85;16.00;;;25.40;99.90;;;;;;5166872;28;20039;-76
2023/08/15 07:01:57;;;;;;;34.17;15.15;;;25.30;99.90;;;;;;5166712;28;20370;-78
2023/08/15 07:04:28;;;;;;;36.72;16.05;;;25.40;99.90;;;;;;5165058;28;20034;-76
2023/08/15 07:06:59;;;;;;;39.90;15.27;;;25.40;99.90;;;;;;5166559;28;20027;-75
2023/08/15 07:09:32;;;;;;;33.05;15.55;;;25.40;99.90;;;;;;5166734;28;20027;-77
2023/08/15 07:12:05;;;;;;;42.45;16.98;;;25.40;99.90;;;;;;5165297;28;20442;-76
2023/08/15 07:14:36;;;;;;;36.63;15.60;;;25.50;99.90;;;;;;5165328;28;20475;-79
2023/08/15 07:17:06;;;;;;;31.88;15.00;;;25.40;99.90;;;;;;5165909;28;20109;-76
2023/08/15 07:19:37;;;;;;;38.05;16.23;;;25.50;99.90;;;;;;5164741;28;20410;-76
2023/08/15 07:22:08;;;;;;;39.33;15.27;;;25.50;99.90;;;;;;5165464;28;20026;-77
2023/08/15 07:24:39;;;;;;;39.95;16.55;;;25.60;99.90;;;;;;5165796;28;20502;-79
2023/08/15 07:27:10;;;;;;;40.03;16.40;;;25.60;99.90;;;;;;5166137;28;20042;-77
2023/08/15 07:29:41;;;;;;;37.35;16.15;;;25.50;99.90;;;;;;5164314;28;20379;-76
2023/08/15 07:32:12;;;;;;;40.85;16.40;;;25.60;99.90;;;;;;5165717;28;20058;-77
2023/08/15 07:34:43;;;;;;;31.73;15.45;;;25.50;99.90;;;;;;5165741;28;20022;-81
2023/08/15 07:37:15;;;;;;;36.25;15.30;;;25.50;99.90;;;;;;5164813;28;20070;-81
2023/08/15 07:39:46;;;;;;;36.80;15.52;;;25.50;99.90;;;;;;5166044;28;20042;-81
2023/08/15 07:42:16;;;;;;;36.13;15.68;;;25.50;99.90;;;;;;5164962;28;20018;-76
2023/08/15 07:44:47;;;;;;;36.90;15.25;;;25.50;99.90;;;;;;5165905;28;20497;-76
2023/08/15 07:47:19;;;;;;;39.60;16.13;;;25.40;99.90;;;;;;5166054;28;20022;-80
2023/08/15 07:50:10;;;;;;;39.50;16.40;;;25.40;99.90;;;;;;5165829;28;20393;-79
2023/08/15 07:52:41;;;;;;;34.58;16.27;;;25.50;99.90;;;;;;5161516;28;20392;-81
2023/08/15 07:55:12;;;;;;;37.70;16.42;;;25.50;99.90;;;;;;5165596;28;20453;-79
2023/08/15 07:57:46;;;;;;;37.17;16.80;;;25.50;99.90;;;;;;5164332;28;20169;-77
2023/08/15 08:00:18;;;;;;;32.72;17.52;;;25.50;99.90;;;;;;5164656;28;20026;-76
2023/08/15 08:02:49;;;;;;;39.80;16.42;;;25.50;99.90;;;;;;5165944;28;20109;-75
2023/08/15 08:05:20;;;;;;;42.97;18.33;;;25.50;99.90;;;;;;5164484;28;20542;-77
2023/08/15 08:07:51;;;;;;;36.00;16.45;;;25.60;99.90;;;;;;5163867;28;20125;-79
2023/08/15 08:10:22;;;;;;;35.13;16.73;;;25.50;99.90;;;;;;5164282;28;20031;-76
2023/08/15 08:12:54;;;;;;;35.28;16.23;;;25.50;99.90;;;;;;5164753;28;20026;-76
2023/08/15 08:15:24;;;;;;;47.15;17.08;;;25.60;99.90;;;;;;5164584;28;20112;-76
2023/08/15 08:17:55;;;;;;;38.58;15.75;;;25.60;99.90;;;;;;5164361;28;20074;-80
2023/08/15 08:20:26;;;;;;;41.63;15.85;;;25.60;99.90;;;;;;5166066;28;20034;-75
2023/08/15 08:22:57;;;;;;;34.05;15.43;;;25.60;99.90;;;;;;5164514;28;20037;-77
2023/08/15 08:25:28;;;;;;;39.72;16.95;;;25.60;99.90;;;;;;5163491;28;20082;-80
2023/08/15 08:27:59;;;;;;;40.88;17.10;;;25.60;99.90;;;;;;5164455;28;20701;-80
2023/08/15 08:30:30;;;;;;;36.95;16.90;;;25.60;99.90;;;;;;5165650;28;20037;-77
2023/08/15 08:33:01;;;;;;;37.47;16.52;;;25.50;99.90;;;;;;5165628;28;20030;-76
2023/08/15 08:35:31;;;;;;;36.25;15.88;;;25.50;99.90;;;;;;5165440;28;20034;-80
2023/08/15 08:38:03;;;;;;;33.60;16.48;;;25.50;99.90;;;;;;5165704;28;20042;-79
2023/08/15 08:40:34;;;;;;;37.72;16.25;;;25.50;99.90;;;;;;5165106;28;20162;-76
2023/08/15 08:43:05;;;;;;;37.72;16.17;;;25.50;99.90;;;;;;5165145;28;20529;-74
2023/08/15 08:45:42;;;;;;;39.58;16.00;;;25.50;99.90;;;;;;5164788;28;20022;-75
2023/08/15 08:48:15;;;;;;;32.50;15.82;;;25.50;99.90;;;;;;5164609;28;20490;-75
2023/08/15 08:50:46;;;;;;;38.17;17.13;;;25.50;99.90;;;;;;5165164;28;20061;-74
2023/08/15 08:53:17;;;;;;;40.40;17.00;;;25.50;99.90;;;;;;5164540;28;20359;-78
2023/08/15 08:55:48;;;;;;;35.08;15.18;;;25.50;99.90;;;;;;5163794;28;20037;-88
2023/08/15 08:58:20;;;;;;;38.13;16.08;;;25.60;99.90;;;;;;5163585;28;20052;-78
2023/08/15 09:00:51;;;;;;;33.72;15.50;;;25.60;99.90;;;;;;5164974;28;20023;-88
2023/08/15 09:03:22;;;;;;;34.95;16.20;;;25.70;99.90;;;;;;5164556;28;20031;-79
2023/08/15 09:05:53;;;;;;;40.00;16.15;;;25.70;99.90;;;;;;5164590;28;20076;-76
2023/08/15 09:08:24;;;;;;;36.55;15.98;;;25.60;99.90;;;;;;5164868;28;20039;-79
2023/08/15 09:10:55;;;;;;;38.90;15.52;;;25.50;99.90;;;;;;5164450;28;20026;-84
2023/08/15 09:13:26;;;;;;;35.35;16.00;;;25.50;99.90;;;;;;5164462;28;20034;-75
2023/08/15 09:15:59;;;;;;;34.38;15.85;;;25.50;99.90;;;;;;5164503;28;20026;-86
2023/08/15 09:18:33;;;;;;;40.30;15.13;;;25.50;99.90;;;;;;5164056;28;20435;-77
2023/08/15 09:21:07;;;;;;;35.53;16.10;;;25.60;99.90;;;;;;5167323;28;20467;-76
2023/08/15 09:23:41;;;;;;;34.47;15.90;;;25.60;99.90;;;;;;5166675;28;20046;-76
2023/08/15 09:26:16;;;;;;;34.92;15.23;;;25.60;99.90;;;;;;5167945;28;20042;-77
2023/08/15 09:28:47;;;;;;;34.13;14.82;;;25.60;99.90;;;;;;5167845;28;20499;-76
2023/08/15 09:31:18;;;;;;;29.83;13.52;;;25.60;99.90;;;;;;5168187;28;20022;-76
2023/08/15 09:33:49;;;;;;;43.30;14.68;;;25.60;99.90;;;;;;5168076;28;20026;-81
2023/08/15 09:36:23;;;;;;;34.25;14.38;;;25.60;99.90;;;;;;5168144;28;20014;-76
2023/08/15 09:38:59;;;;;;;36.10;14.73;;;25.60;99.90;;;;;;5166728;28;20049;-78
2023/08/15 09:41:30;;;;;;;36.80;15.25;;;25.50;99.90;;;;;;5166722;28;20029;-84
2023/08/15 09:44:00;;;;;;;39.50;14.85;;;25.60;99.90;;;;;;5166678;28;20026;-77
2023/08/15 09:46:32;;;;;;;38.17;14.07;;;25.50;99.90;;;;;;5166576;28;20506;-87
2023/08/15 09:49:04;;;;;;;43.45;15.18;;;25.60;99.90;;;;;;5167911;28;20023;-77
2023/08/15 09:51:35;;;;;;;36.78;14.45;;;25.50;99.90;;;;;;5167804;28;20033;-81
2023/08/15 09:54:08;;;;;;;30.08;14.88;;;25.40;99.90;;;;;;5167674;28;20034;-76
2023/08/15 09:56:39;;;;;;;41.75;13.95;;;25.60;99.90;;;;;;5166391;28;20035;-76
2023/08/15 09:59:10;;;;;;;29.27;13.02;;;25.70;99.90;;;;;;5167320;28;20494;-85
2023/08/15 10:01:42;;;;;;;32.88;13.70;;;25.80;99.90;;;;;;5166081;28;20185;-77
2023/08/15 10:04:15;;;;;;;34.92;13.20;;;25.90;99.90;;;;;;5167398;28;20034;-78
2023/08/15 10:06:46;;;;;;;35.67;14.45;;;25.80;99.90;;;;;;5165886;28;20028;-75
2023/08/15 10:09:18;;;;;;;30.60;14.02;;;25.90;99.90;;;;;;5148175;28;20035;-76
2023/08/15 10:11:49;;;;;;;35.28;14.48;;;26.00;99.90;;;;;;5168924;28;20018;-75
2023/08/15 10:14:20;;;;;;;36.97;15.50;;;26.00;99.90;;;;;;5166293;28;20034;-77
2023/08/15 10:16:52;;;;;;;32.22;14.68;;;26.00;99.90;;;;;;5167350;28;20037;-88
2023/08/15 10:19:29;;;;;;;35.70;14.05;;;26.10;99.90;;;;;;5167252;28;20129;-77
2023/08/15 10:22:02;;;;;;;32.38;13.57;;;26.00;99.90;;;;;;5167012;28;20366;-76
2023/08/15 10:24:33;;;;;;;35.22;15.63;;;26.20;99.90;;;;;;5166668;28;20089;-88
2023/08/15 10:27:06;;;;;;;25.25;14.32;;;26.00;99.90;;;;;;5167508;28;20038;-77
2023/08/15 10:30:03;;;;;;;32.83;13.70;;;26.10;99.90;;;;;;5166064;28;20035;-76
2023/08/15 10:32:34;;;;;;;30.58;13.32;;;26.10;99.90;;;;;;5164407;28;20042;-76
2023/08/15 10:35:06;;;;;;;34.03;13.15;;;26.10;99.90;;;;;;5167182;28;20475;-76
2023/08/15 10:37:38;;;;;;;35.95;13.95;;;26.20;99.90;;;;;;5167255;28;20109;-75
2023/08/15 10:40:13;;;;;;;33.10;12.77;;;26.20;99.90;;;;;;5167259;28;20038;-76
2023/08/15 10:43:02;;;;;;;30.67;12.13;;;26.20;99.90;;;;;;5167264;28;20022;-77
2023/08/15 10:45:41;;;;;;;28.50;13.18;;;26.20;99.90;;;;;;5167052;28;20031;-76
2023/08/15 10:48:13;;;;;;;29.98;12.50;;;26.10;99.90;;;;;;5165702;28;20030;-88
2023/08/15 10:50:46;;;;;;;26.63;12.50;;;26.00;99.90;;;;;;5165550;28;20482;-81
2023/08/15 10:53:17;;;;;;;31.23;12.88;;;26.00;99.90;;;;;;5166624;28;20479;-76
2023/08/15 10:55:48;;;;;;;30.65;12.93;;;26.20;99.90;;;;;;5166838;28;20031;-90
2023/08/15 10:58:22;;;;;;;33.85;13.20;;;26.10;99.90;;;;;;5165282;28;20035;-79
2023/08/15 11:00:54;;;;;;;33.92;13.85;;;26.00;99.90;;;;;;5165347;28;20065;-89
2023/08/15 11:03:26;;;;;;;31.48;14.30;;;25.90;99.90;;;;;;5165139;28;20022;-87
2023/08/15 11:06:11;;;;;;;32.15;13.55;;;26.00;99.90;;;;;;5164617;28;20040;-77
2023/08/15 11:08:49;;;;;;;32.70;13.45;;;25.80;99.90;;;;;;5166684;28;20455;-76
2023/08/15 11:11:20;;;;;;;33.55;13.25;;;25.90;99.90;;;;;;5166536;28;20459;-78
2023/08/15 11:13:52;;;;;;;29.88;12.68;;;25.90;99.90;;;;;;5166612;28;20470;-76
2023/08/15 11:16:23;;;;;;;32.08;13.52;;;25.90;99.90;;;;;;5165029;28;20479;-86
2023/08/15 11:18:57;;;;;;;30.95;13.50;;;25.80;99.90;;;;;;5166419;28;20176;-80
2023/08/15 11:21:29;;;;;;;36.33;13.23;;;25.90;99.90;;;;;;5166237;28;20028;-76
2023/08/15 11:24:00;;;;;;;33.38;13.45;;;25.90;99.90;;;;;;5165027;28;20038;-84
2023/08/15 11:26:31;;;;;;;32.53;13.52;;;26.00;99.90;;;;;;5166230;28;20150;-76
2023/08/15 11:29:03;;;;;;;34.78;14.23;;;26.00;99.90;;;;;;5165640;28;20049;-88
2023/08/15 11:31:35;;;;;;;30.63;13.30;;;26.00;99.90;;;;;;5164073;28;20027;-77
2023/08/15 11:34:08;;;;;;;30.42;12.82;;;26.00;99.90;;;;;;5164626;28;20109;-76
2023/08/15 11:36:39;;;;;;;31.52;12.88;;;26.20;99.90;;;;;;5166062;28;20037;-75
2023/08/15 11:39:13;;;;;;;27.00;14.20;;;26.20;99.90;;;;;;5165713;28;20045;-77
2023/08/15 11:41:44;;;;;;;31.85;14.20;;;26.20;99.90;;;;;;5165960;28;20033;-82
2023/08/15 11:44:20;;;;;;;32.22;14.48;;;26.30;99.90;;;;;;5164322;28;20038;-77
2023/08/15 11:46:51;;;;;;;32.42;15.95;;;26.30;99.90;;;;;;5164875;28;20027;-77
2023/08/15 11:49:22;;;;;;;40.05;15.77;;;26.20;99.90;;;;;;5165769;28;20150;-77
2023/08/15 11:52:03;;;;;;;34.63;15.07;;;26.10;99.90;;;;;;5165528;28;20609;-76
2023/08/15 11:54:33;;;;;;;32.88;14.48;;;26.10;99.90;;;;;;5165608;28;20014;-79
2023/08/15 11:57:04;;;;;;;31.15;15.38;;;26.20;99.90;;;;;;5165248;28;20486;-77
2023/08/15 11:59:36;;;;;;;30.83;15.50;;;26.10;99.90;;;;;;5165443;28;20422;-76
2023/08/15 12:02:11;;;;;;;29.20;15.60;;;26.10;99.90;;;;;;5164511;28;20029;-76
2023/08/15 12:04:42;;;;;;;34.65;16.33;;;26.20;99.90;;;;;;5164254;28;20043;-84
2023/08/15 12:07:12;;;;;;;36.25;16.08;;;26.20;99.90;;;;;;5163776;28;20125;-76
2023/08/15 12:09:43;;;;;;;31.05;15.68;;;26.10;99.90;;;;;;5164737;28;20026;-76
2023/08/15 12:12:20;;;;;;;32.20;15.77;;;26.00;99.90;;;;;;5165173;28;20433;-77
2023/08/15 12:14:51;;;;;;;30.63;14.82;;;26.10;99.90;;;;;;5165299;28;20038;-83
2023/08/15 12:17:22;;;;;;;27.38;15.18;;;26.00;99.90;;;;;;5165282;28;20459;-76
2023/08/15 12:19:53;;;;;;;29.65;15.35;;;26.10;99.90;;;;;;5164009;28;20042;-76
2023/08/15 12:22:24;;;;;;;31.85;15.18;;;26.20;99.90;;;;;;5164647;28;20026;-85
2023/08/15 12:24:56;;;;;;;35.40;15.13;;;26.20;99.90;;;;;;5163663;28;20141;-77
2023/08/15 12:27:27;;;;;;;30.27;14.65;;;26.20;99.90;;;;;;5163044;28;20062;-76
2023/08/15 12:29:58;;;;;;;32.00;14.98;;;26.30;99.90;;;;;;5164919;28;20023;-76
2023/08/15 12:32:29;;;;;;;36.17;15.52;;;26.20;99.90;;;;;;5163429;28;20038;-76
2023/08/15 12:34:59;;;;;;;36.88;16.05;;;26.20;99.90;;;;;;5163723;28;20027;-81
2023/08/15 12:37:30;;;;;;;37.47;15.50;;;26.20;99.90;;;;;;5163977;28;20026;-87
2023/08/15 12:40:01;;;;;;;39.83;15.20;;;26.20;99.90;;;;;;5163748;28;20409;-77
2023/08/15 12:42:32;;;;;;;36.65;15.52;;;26.20;99.90;;;;;;5165177;28;20502;-77
2023/08/15 12:45:03;;;;;;;35.08;15.48;;;26.20;99.90;;;;;;5163421;28;20112;-78
2023/08/15 12:47:34;;;;;;;35.30;14.32;;;26.10;99.90;;;;;;5163773;28;20052;-82
2023/08/15 12:50:06;;;;;;;36.75;15.60;;;26.20;99.90;;;;;;5165020;28;20030;-78
2023/08/15 12:52:37;;;;;;;40.47;15.68;;;26.30;99.90;;;;;;5164688;28;20475;-76